Time;durP1;ratioP1;P1;durP2;ratioP2;P2;SDS_P1;SDS_P2;PMS_P1;PMS_P2;Temp;Humidity;BMP_temperature;BMP_pressure;BME280_temperature;BME280_humidity;BME280_pressure;Samples;Min_cycle;Max_cycle;Signal;HPM_P1;HPM_P2
2022/08/18 00:02:17;;;;;;;10.20;7.28;;;;;;;20.89;82.48;98057.81;5046308;28;20017;-66
2022/08/18 00:04:43;;;;;;;10.90;6.72;;;;;;;20.91;82.93;98055.91;5045455;28;20031;-66
2022/08/18 00:07:12;;;;;;;12.23;6.75;;;;;;;20.93;82.31;98067.38;5063608;28;20044;-66
2022/08/18 00:09:39;;;;;;;12.45;7.00;;;;;;;21.01;81.79;98065.03;5065404;28;20316;-66
2022/08/18 00:12:11;;;;;;;14.52;6.55;;;;;;;21.03;81.53;98065.78;5065537;28;20028;-66
2022/08/18 00:14:36;;;;;;;11.82;6.50;;;;;;;21.03;81.58;98064.94;5064075;28;20025;-66
2022/08/18 00:17:02;;;;;;;9.95;6.53;;;;;;;20.94;81.95;98074.47;5065427;28;20265;-66
2022/08/18 00:19:28;;;;;;;9.88;6.35;;;;;;;20.86;82.33;98071.44;5065149;28;20039;-66
2022/08/18 00:21:53;;;;;;;8.95;6.25;;;;;;;20.89;82.13;98071.19;5065361;28;20264;-66
2022/08/18 00:24:18;;;;;;;9.15;6.18;;;;;;;20.81;82.62;98067.34;5065269;28;20071;-66
2022/08/18 00:26:44;;;;;;;10.85;5.55;;;;;;;20.76;82.88;98059.66;5047533;28;20313;-66
2022/08/18 00:29:09;;;;;;;11.15;5.60;;;;;;;20.71;83.13;98060.94;5045583;28;20080;-66
2022/08/18 00:31:35;;;;;;;12.35;6.57;;;;;;;20.74;83.06;98061.59;5045755;28;20079;-66
2022/08/18 00:34:00;;;;;;;10.45;5.85;;;;;;;20.70;83.20;98054.75;5047565;28;20052;-66
2022/08/18 00:36:27;;;;;;;14.68;6.13;;;;;;;20.76;83.07;98065.00;5045979;28;20025;-66
2022/08/18 00:38:53;;;;;;;13.63;6.35;;;;;;;20.67;83.36;98065.66;5045624;28;20025;-66
2022/08/18 00:41:20;;;;;;;9.07;6.15;;;;;;;20.58;83.91;98055.59;5045575;28;20029;-66
2022/08/18 00:43:48;;;;;;;15.38;6.45;;;;;;;20.61;83.84;98065.19;5045388;28;20017;-66
2022/08/18 00:46:21;;;;;;;13.48;6.00;;;;;;;20.48;84.47;98065.19;5045470;28;20029;-66
2022/08/18 00:48:48;;;;;;;9.32;6.05;;;;;;;20.46;84.59;98063.56;5045413;28;20025;-66
2022/08/18 00:51:19;;;;;;;8.38;5.57;;;;;;;20.58;84.23;98071.63;5045301;28;20032;-66
2022/08/18 00:53:51;;;;;;;8.57;5.50;;;;;;;20.51;84.58;98070.34;5063512;28;20047;-66
2022/08/18 00:56:24;;;;;;;9.88;6.13;;;;;;;20.50;84.90;98073.94;5064738;28;20041;-66
2022/08/18 00:58:56;;;;;;;10.63;5.95;;;;;;;20.46;84.97;98061.75;5064334;28;20021;-66
2022/08/18 01:01:25;;;;;;;14.13;6.22;;;;;;;20.45;85.05;98064.53;5064680;28;20021;-66
2022/08/18 01:03:57;;;;;;;7.55;6.00;;;;;;;20.43;85.48;98064.63;5047594;28;20033;-66
2022/08/18 01:06:27;;;;;;;;;;;;;;;20.46;85.73;98064.44;5063597;28;20024;-66
2022/08/18 01:08:53;;;;;;;11.10;6.00;;;;;;;20.43;86.73;98059.28;5064412;28;19912;-66
2022/08/18 01:11:18;;;;;;;7.97;5.43;;;;;;;20.44;87.21;98063.66;5064997;28;20374;-66
2022/08/18 01:13:44;;;;;;;11.20;6.20;;;;;;;20.37;88.38;98067.72;5046503;28;20025;-66
2022/08/18 01:21:51;;;;;;;9.23;5.93;;;;;;;19.92;94.68;98068.09;5044829;28;20075;-66
2022/08/18 01:24:20;;;;;;;12.18;7.80;;;;;;;19.82;95.82;98069.63;5044611;28;20051;-66
2022/08/18 01:26:49;;;;;;;11.65;6.95;;;;;;;19.76;96.53;98075.38;5042974;28;20048;-66
2022/08/18 01:29:17;;;;;;;19.58;8.10;;;;;;;19.71;97.92;98072.13;5044595;28;20041;-66
2022/08/18 01:31:54;;;;;;;15.65;8.18;;;;;;;19.60;99.62;98084.47;5044560;28;20029;-66
2022/08/18 01:34:23;;;;;;;14.55;7.22;;;;;;;19.58;100.00;98087.22;5044797;28;20044;-66
2022/08/18 01:36:51;;;;;;;12.35;7.72;;;;;;;19.51;100.00;98085.03;5051788;28;20016;-66
2022/08/18 01:39:18;;;;;;;10.32;7.68;;;;;;;19.45;100.00;98078.28;5063602;28;20029;-66
2022/08/18 01:41:43;;;;;;;10.65;7.63;;;;;;;19.39;100.00;98080.50;5063931;28;20084;-66
2022/08/18 01:44:10;;;;;;;13.45;7.55;;;;;;;19.36;100.00;98084.22;5063731;28;20024;-66
2022/08/18 01:46:37;;;;;;;14.98;8.48;;;;;;;19.30;100.00;98078.41;5062099;28;20024;-66
2022/08/18 01:49:03;;;;;;;12.45;8.52;;;;;;;19.24;100.00;98076.97;5063808;28;20376;-66
2022/08/18 01:51:31;;;;;;;10.77;7.65;;;;;;;19.25;100.00;98068.00;5063145;28;20343;-66
2022/08/18 01:53:57;;;;;;;14.48;8.02;;;;;;;19.25;100.00;98070.66;5063643;28;20066;-66
2022/08/18 01:56:25;;;;;;;14.80;8.73;;;;;;;19.25;100.00;98065.31;5057550;28;20021;-66
2022/08/18 01:58:51;;;;;;;16.83;8.18;;;;;;;19.30;100.00;98054.41;5044178;28;20423;-66
2022/08/18 02:01:16;;;;;;;12.73;8.98;;;;;;;19.29;100.00;98058.88;5044191;28;20029;-66
2022/08/18 02:03:45;;;;;;;15.27;8.63;;;;;;;19.32;100.00;98050.66;5044090;28;20029;-66
2022/08/18 02:06:13;;;;;;;13.80;9.38;;;;;;;19.34;100.00;98051.44;5048378;28;20021;-66
2022/08/18 02:08:39;;;;;;;15.15;9.48;;;;;;;19.38;100.00;98068.97;5063475;28;20036;-66
2022/08/18 02:11:06;;;;;;;13.85;9.88;;;;;;;19.40;100.00;98064.41;5052516;28;20088;-66
2022/08/18 02:13:32;;;;;;;14.60;10.48;;;;;;;19.37;100.00;98061.94;5044153;28;20021;-66
2022/08/18 02:15:58;;;;;;;10.70;8.43;;;;;;;19.31;100.00;98056.97;5050088;28;20017;-66
2022/08/18 02:18:27;;;;;;;14.55;10.20;;;;;;;19.32;100.00;98063.16;5054246;28;20032;-66
2022/08/18 02:20:54;;;;;;;12.77;9.82;;;;;;;19.28;100.00;98067.84;5043950;28;20025;-66
2022/08/18 02:23:19;;;;;;;13.85;10.38;;;;;;;19.20;100.00;98067.41;5043944;28;20040;-66
2022/08/18 02:25:45;;;;;;;11.43;9.35;;;;;;;19.24;100.00;98066.28;5051393;28;20088;-66
2022/08/18 02:28:10;;;;;;;15.95;10.18;;;;;;;19.25;100.00;98063.53;5062934;28;20052;-66
2022/08/18 02:30:36;;;;;;;15.40;10.70;;;;;;;19.27;100.00;98068.81;5063366;28;20051;-66
2022/08/18 02:33:03;;;;;;;14.57;10.88;;;;;;;19.22;100.00;98065.50;5063685;28;20025;-66
2022/08/18 02:35:29;;;;;;;12.85;10.70;;;;;;;19.14;100.00;98065.13;5063168;28;20020;-66
2022/08/18 02:38:01;;;;;;;14.45;10.32;;;;;;;19.14;100.00;98065.13;5062918;28;20025;-66
2022/08/18 02:40:27;;;;;;;14.45;11.40;;;;;;;19.09;100.00;98062.78;5066329;28;20218;-66
2022/08/18 02:42:54;;;;;;;12.88;9.95;;;;;;;19.06;100.00;98059.44;5066971;28;20021;-66
2022/08/18 02:45:21;;;;;;;14.68;10.60;;;;;;;19.03;100.00;98062.28;5064706;28;20029;-66
2022/08/18 02:47:55;;;;;;;18.85;10.40;;;;;;;19.03;100.00;98067.63;5047608;28;20021;-66
2022/08/18 02:50:21;;;;;;;16.50;11.70;;;;;;;19.01;100.00;98056.16;5056901;28;20073;-66
2022/08/18 02:52:47;;;;;;;12.77;9.85;;;;;;;19.03;100.00;98062.28;5067290;28;20020;-66
2022/08/18 02:55:13;;;;;;;14.05;11.20;;;;;;;19.01;100.00;98061.50;5066061;28;20332;-66
2022/08/18 02:57:44;;;;;;;13.80;10.80;;;;;;;19.01;100.00;98069.50;5047964;28;20072;-66
2022/08/18 03:00:13;;;;;;;15.45;10.00;;;;;;;19.01;100.00;98064.16;5047437;28;20025;-66
2022/08/18 03:02:38;;;;;;;14.65;10.77;;;;;;;19.03;100.00;98056.94;5047535;28;20029;-66
2022/08/18 03:05:06;;;;;;;16.38;11.57;;;;;;;19.00;100.00;98059.81;5048456;28;20277;-66
2022/08/18 03:07:31;;;;;;;17.70;11.48;;;;;;;18.91;100.00;98057.69;5047308;28;20026;-66
2022/08/18 03:09:56;;;;;;;15.63;10.98;;;;;;;18.84;100.00;98048.38;5063504;28;20035;-66
2022/08/18 03:12:22;;;;;;;17.35;11.55;;;;;;;18.82;100.00;98058.25;5048484;28;20353;-66
2022/08/18 03:14:48;;;;;;;15.50;11.25;;;;;;;18.79;100.00;98069.09;5047194;28;20309;-66
2022/08/18 03:17:13;;;;;;;13.93;11.20;;;;;;;18.84;100.00;98061.69;5062022;28;20236;-66
2022/08/18 03:19:39;;;;;;;16.67;10.75;;;;;;;18.85;100.00;98060.75;5064955;28;20029;-66
2022/08/18 03:22:07;;;;;;;14.98;11.48;;;;;;;18.79;100.00;98051.31;5066490;28;20029;-66
2022/08/18 03:24:33;;;;;;;15.38;11.77;;;;;;;18.82;100.00;98052.94;5066859;28;20025;-66
2022/08/18 03:27:02;;;;;;;16.67;11.90;;;;;;;18.80;100.00;98049.50;5055781;28;20244;-66
2022/08/18 03:29:28;;;;;;;15.75;11.40;;;;;;;18.85;100.00;98052.75;5046956;28;20044;-66
2022/08/18 03:31:54;;;;;;;13.85;10.68;;;;;;;18.85;100.00;98058.06;5046915;28;20021;-66
2022/08/18 03:34:19;;;;;;;15.32;10.80;;;;;;;18.87;100.00;98056.19;5046867;28;20021;-66
2022/08/18 03:36:45;;;;;;;16.90;12.13;;;;;;;18.82;100.00;98047.59;5046793;28;20029;-66
2022/08/18 03:39:12;;;;;;;17.27;11.77;;;;;;;18.80;100.00;98038.84;5061090;28;20017;-66
2022/08/18 03:41:40;;;;;;;18.23;12.50;;;;;;;18.72;100.00;98041.13;5066130;28;20020;-66
2022/08/18 03:44:06;;;;;;;15.75;11.52;;;;;;;18.74;100.00;98039.22;5055689;28;20226;-66
2022/08/18 03:46:32;;;;;;;14.52;11.45;;;;;;;18.73;100.00;98042.84;5051530;28;20021;-66
2022/08/18 03:48:58;;;;;;;15.63;12.05;;;;;;;18.68;100.00;98047.59;5065700;28;20255;-66
2022/08/18 03:51:28;;;;;;;15.10;11.43;;;;;;;18.68;100.00;98044.94;5046204;28;20026;-66
2022/08/18 03:54:00;;;;;;;19.88;11.90;;;;;;;18.66;100.00;98046.81;5046444;28;20217;-66
2022/08/18 03:56:31;;;;;;;14.37;10.80;;;;;;;18.67;100.00;98048.56;5047846;28;20026;-66
2022/08/18 03:59:00;;;;;;;15.85;10.65;;;;;;;18.66;100.00;98041.47;5046347;28;20270;-66
2022/08/18 04:01:30;;;;;;;15.60;11.40;;;;;;;18.66;100.00;98041.47;5046616;28;20068;-66
2022/08/18 04:03:59;;;;;;;15.68;12.00;;;;;;;18.65;100.00;98050.44;5046237;28;20035;-66
2022/08/18 04:06:27;;;;;;;20.92;12.05;;;;;;;18.65;100.00;98051.31;5053962;28;20028;-66
2022/08/18 04:08:59;;;;;;;17.83;11.80;;;;;;;18.69;100.00;98049.28;5046231;28;20104;-66
2022/08/18 04:11:27;;;;;;;19.05;10.98;;;;;;;18.72;100.00;98051.78;5046137;28;20025;-66
2022/08/18 04:13:53;;;;;;;16.45;12.20;;;;;;;18.73;100.00;98056.19;5046283;28;20309;-66
2022/08/18 04:16:19;;;;;;;17.77;12.13;;;;;;;18.71;100.00;98058.06;5046010;28;20021;-66
2022/08/18 04:18:44;;;;;;;15.63;12.10;;;;;;;18.74;100.00;98056.09;5046056;28;20051;-66
2022/08/18 04:21:12;;;;;;;13.90;11.55;;;;;;;18.79;100.00;98064.66;5046979;28;20021;-66
2022/08/18 04:23:39;;;;;;;14.27;11.38;;;;;;;18.82;100.00;98063.59;5044722;28;20033;-66
2022/08/18 04:26:06;;;;;;;15.30;11.40;;;;;;;18.83;100.00;98065.34;5044915;28;20025;-66
2022/08/18 04:28:33;;;;;;;15.10;12.15;;;;;;;18.79;100.00;98063.78;5044821;28;20392;-66
2022/08/18 04:31:04;;;;;;;16.63;10.38;;;;;;;18.82;100.00;98060.94;5045050;28;20109;-66
2022/08/18 04:33:30;;;;;;;16.52;12.20;;;;;;;18.84;100.00;98067.91;5062059;28;20035;-66
2022/08/18 04:35:55;;;;;;;13.82;12.13;;;;;;;18.81;100.00;98067.22;5049405;28;20225;-66
2022/08/18 04:38:21;;;;;;;15.38;11.57;;;;;;;18.79;100.00;98079.78;5045599;28;20332;-66
2022/08/18 04:40:47;;;;;;;17.00;13.10;;;;;;;18.81;100.00;98083.22;5045641;28;20317;-66
2022/08/18 04:43:14;;;;;;;13.32;11.48;;;;;;;18.76;100.00;98090.63;5045628;28;20032;-66
2022/08/18 04:45:44;;;;;;;18.55;11.80;;;;;;;18.78;100.00;98088.72;5045670;28;20025;-66
2022/08/18 04:48:11;;;;;;;16.33;11.80;;;;;;;18.82;100.00;98095.59;5045431;28;20274;-66
2022/08/18 04:50:37;;;;;;;15.40;11.80;;;;;;;18.85;100.00;98098.06;5045416;28;20025;-66
2022/08/18 04:55:50;;;;;;;14.07;10.70;;;;;;;18.93;100.00;98117.16;5045313;28;20032;-66
2022/08/18 04:58:17;;;;;;;16.48;11.38;;;;;;;18.91;100.00;98111.91;5045212;28;20025;-66
2022/08/18 05:00:44;;;;;;;15.23;11.70;;;;;;;18.91;100.00;98121.69;5045168;28;20022;-66
2022/08/18 05:03:11;;;;;;;15.70;13.05;;;;;;;18.91;100.00;98124.38;5044357;28;20041;-66
2022/08/18 05:05:36;;;;;;;18.42;12.10;;;;;;;18.88;100.00;98121.88;5045051;28;20028;-66
2022/08/18 05:08:02;;;;;;;17.33;11.70;;;;;;;18.87;100.00;98125.50;5045086;28;20041;-66
2022/08/18 05:10:27;;;;;;;16.17;12.75;;;;;;;18.88;100.00;98127.22;5045063;28;20029;-66
2022/08/18 05:12:52;;;;;;;17.55;12.48;;;;;;;18.86;100.00;98140.66;5045031;28;20074;-66
2022/08/18 05:15:19;;;;;;;20.42;12.85;;;;;;;18.87;100.00;98136.19;5044964;28;20021;-66
2022/08/18 05:17:44;;;;;;;18.25;15.38;;;;;;;18.88;100.00;98137.88;5045147;28;20017;-66
2022/08/18 05:20:10;;;;;;;16.67;12.60;;;;;;;18.91;100.00;98137.69;5044854;28;20198;-66
2022/08/18 05:22:41;;;;;;;17.65;13.75;;;;;;;18.93;100.00;98138.47;5044768;28;20029;-66
2022/08/18 05:25:09;;;;;;;17.52;13.30;;;;;;;18.98;100.00;98139.03;5044680;28;20329;-66
2022/08/18 05:27:36;;;;;;;20.80;13.80;;;;;;;18.92;100.00;98142.09;5044609;28;20055;-66
2022/08/18 05:30:02;;;;;;;17.00;12.52;;;;;;;18.90;100.00;98141.34;5043525;28;20353;-66
2022/08/18 05:32:30;;;;;;;16.58;13.27;;;;;;;18.87;100.00;98136.19;5044240;28;20029;-66
2022/08/18 05:34:56;;;;;;;17.45;12.95;;;;;;;18.86;100.00;98142.47;5044833;28;20359;-66
2022/08/18 05:37:51;;;;;;;18.30;13.50;;;;;;;18.87;100.00;98142.38;5044501;28;20023;-66
2022/08/18 05:40:19;;;;;;;20.00;13.25;;;;;;;18.91;100.00;98137.69;5034620;28;20041;-66
2022/08/18 05:42:45;;;;;;;16.58;13.07;;;;;;;18.98;100.00;98139.91;5044407;28;20017;-66
2022/08/18 05:45:15;;;;;;;18.38;12.55;;;;;;;18.98;100.00;98137.25;5044320;28;20048;-66
2022/08/18 05:47:41;;;;;;;20.38;14.05;;;;;;;19.00;100.00;98137.16;5044331;28;20024;-66
2022/08/18 05:50:10;;;;;;;17.20;12.63;;;;;;;19.06;100.00;98140.31;5044301;28;20057;-66
2022/08/18 05:52:53;;;;;;;19.70;13.63;;;;;;;19.14;100.00;98139.81;5044262;28;20017;-66
2022/08/18 05:58:32;;;;;;;18.98;13.18;;;;;;;19.17;100.00;98135.16;5044225;28;20056;-66
2022/08/18 06:01:03;;;;;;;17.38;13.18;;;;;;;19.21;100.00;98130.50;5044082;28;20241;-66
2022/08/18 06:03:31;;;;;;;20.35;13.88;;;;;;;19.22;100.00;98149.09;5044159;28;20021;-66
2022/08/18 06:06:24;;;;;;;16.70;13.20;;;;;;;19.24;100.00;98135.66;5042920;28;20036;-66
2022/08/18 06:09:12;;;;;;;17.10;13.63;;;;;;;19.24;100.00;98130.31;5043146;28;20100;-66
2022/08/18 06:11:37;;;;;;;21.20;14.88;;;;;;;19.33;100.00;98123.59;5044020;28;20030;-66
2022/08/18 06:14:03;;;;;;;13.23;11.20;;;;;;;19.36;100.00;98115.41;5043847;28;20073;-66
2022/08/18 06:16:48;;;;;;;17.65;12.57;;;;;;;19.47;100.00;98121.78;5043918;28;20028;-66
2022/08/18 06:19:32;;;;;;;17.98;12.77;;;;;;;19.49;100.00;98109.16;5044187;28;20017;-66
2022/08/18 06:22:31;;;;;;;15.30;11.93;;;;;;;19.53;100.00;98110.72;5043891;28;20028;-66
2022/08/18 06:25:02;;;;;;;15.30;12.55;;;;;;;19.63;100.00;98106.50;5043803;28;20025;-66
2022/08/18 06:28:02;;;;;;;15.52;12.30;;;;;;;19.69;100.00;98106.09;5043793;28;20223;-66
2022/08/18 06:30:46;;;;;;;12.30;9.30;;;;;;;19.86;100.00;98113.88;5031950;28;20073;-66
2022/08/18 06:33:33;;;;;;;15.73;11.52;;;;;;;19.98;100.00;98113.09;5043791;28;20067;-66
2022/08/18 06:36:11;;;;;;;18.38;12.48;;;;;;;20.04;100.00;98110.03;5043769;28;20268;-66
2022/08/18 06:38:55;;;;;;;19.48;12.60;;;;;;;20.04;100.00;98123.38;5044005;28;20332;-66
2022/08/18 06:41:23;;;;;;;17.10;13.93;;;;;;;19.95;100.00;98123.97;5043739;28;20051;-66
2022/08/18 06:44:01;;;;;;;21.42;15.23;;;;;;;19.81;100.00;98124.03;5043707;28;20021;-66
2022/08/18 06:46:48;;;;;;;19.95;14.50;;;;;;;19.87;100.00;98131.59;5043969;28;20025;-66
2022/08/18 06:49:30;;;;;;;21.55;15.20;;;;;;;19.87;100.00;98134.28;5043675;28;20018;-66
2022/08/18 06:51:55;;;;;;;20.17;15.55;;;;;;;19.80;100.00;98135.63;5043730;28;20029;-66
2022/08/18 06:54:20;;;;;;;22.13;15.85;;;;;;;19.73;100.00;98139.66;5043685;28;20248;-66
2022/08/18 06:56:51;;;;;;;21.92;14.95;;;;;;;19.73;100.00;98145.00;5043650;28;20025;-66
2022/08/18 06:59:17;;;;;;;20.48;15.35;;;;;;;19.80;100.00;98149.00;5043848;28;20025;-66
2022/08/18 07:01:44;;;;;;;20.20;15.15;;;;;;;19.81;100.00;98148.06;5043781;28;20093;-66
2022/08/18 07:04:29;;;;;;;24.95;15.75;;;;;;;19.78;100.00;98142.03;5043729;28;20033;-66
2022/08/18 07:06:54;;;;;;;21.75;16.73;;;;;;;19.83;100.00;98151.47;5043518;28;20329;-66
2022/08/18 07:09:31;;;;;;;21.35;16.23;;;;;;;19.77;100.00;98151.84;5043501;28;20021;-66
2022/08/18 07:12:01;;;;;;;23.70;16.00;;;;;;;19.78;100.00;98150.94;5043448;28;20021;-66
2022/08/18 07:14:27;;;;;;;23.45;17.67;;;;;;;19.82;100.00;98152.44;5043425;28;20021;-66
2022/08/18 07:17:07;;;;;;;24.42;16.75;;;;;;;19.81;100.00;98153.41;5043649;28;20231;-66
2022/08/18 07:19:33;;;;;;;22.15;15.93;;;;;;;19.80;100.00;98157.00;5043658;28;20021;-66
2022/08/18 07:22:04;;;;;;;22.73;17.50;;;;;;;19.82;100.00;98155.09;5043663;28;20021;-66
2022/08/18 07:24:37;;;;;;;20.98;17.58;;;;;;;19.77;100.00;98164.38;5043299;28;20029;-66
2022/08/18 07:27:07;;;;;;;23.83;19.05;;;;;;;19.73;100.00;98166.38;5046940;28;20021;-66
2022/08/18 07:29:39;;;;;;;24.70;19.13;;;;;;;19.75;100.00;98164.47;5046936;28;20056;-66
2022/08/18 07:32:15;;;;;;;;;;;;;;;19.73;100.00;98166.38;5047327;28;20036;-66
2022/08/18 07:34:51;;;;;;;27.65;19.30;;;;;;;19.75;100.00;98159.13;5046832;28;19904;-66
2022/08/18 07:37:26;;;;;;;24.30;17.98;;;;;;;19.81;100.00;98169.44;5047086;28;20427;-66
2022/08/18 07:40:10;;;;;;;25.08;19.15;;;;;;;19.71;100.00;98168.25;5046684;28;20021;-66
2022/08/18 07:43:02;;;;;;;27.23;20.23;;;;;;;19.63;100.00;98165.22;5046701;28;20127;-66
2022/08/18 07:45:56;;;;;;;26.25;19.13;;;;;;;19.76;100.00;98157.28;5046596;28;20021;-66
2022/08/18 07:48:32;;;;;;;27.73;21.13;;;;;;;19.76;100.00;98165.31;5045783;28;20033;-66
2022/08/18 07:51:08;;;;;;;25.20;18.60;;;;;;;19.82;100.00;98162.25;5046572;28;20028;-66
2022/08/18 07:53:50;;;;;;;23.25;18.75;;;;;;;19.82;100.00;98165.78;5046748;28;20025;-66
2022/08/18 07:56:46;;;;;;;26.87;19.80;;;;;;;19.84;100.00;98163.84;5046550;28;20021;-66
2022/08/18 07:59:18;;;;;;;29.80;20.23;;;;;;;19.88;100.00;98160.06;5046389;28;20335;-66
2022/08/18 08:02:16;;;;;;;24.55;18.48;;;;;;;19.94;100.00;98165.00;5046551;28;20309;-66
2022/08/18 08:05:00;;;;;;;23.60;18.40;;;;;;;19.94;100.00;98154.31;5044482;28;20037;-66
2022/08/18 08:07:34;;;;;;;24.73;17.55;;;;;;;20.01;100.00;98155.63;5046224;28;20030;-66
2022/08/18 08:10:21;;;;;;;21.42;17.48;;;;;;;20.02;100.00;98162.69;5046211;28;20029;-66
2022/08/18 08:13:04;;;;;;;24.13;19.50;;;;;;;19.92;100.00;98161.56;5046192;28;20025;-66
2022/08/18 08:15:39;;;;;;;27.27;19.95;;;;;;;19.96;100.00;98168.41;5046149;28;20044;-66
2022/08/18 08:18:20;;;;;;;27.23;20.30;;;;;;;19.94;100.00;98170.34;5046028;28;20037;-66
2022/08/18 08:20:57;;;;;;;24.73;18.90;;;;;;;19.93;100.00;98167.78;5046017;28;20252;-66
2022/08/18 08:23:32;;;;;;;25.25;19.15;;;;;;;19.88;100.00;98165.41;5045985;28;20025;-66
2022/08/18 08:25:57;;;;;;;28.30;20.00;;;;;;;19.85;100.00;98173.59;5045814;28;20021;-66
2022/08/18 08:28:34;;;;;;;26.45;18.38;;;;;;;19.80;100.00;98173.03;5045814;28;20090;-66
2022/08/18 08:31:05;;;;;;;25.40;18.92;;;;;;;19.78;100.00;98190.13;5045710;28;20341;-66
2022/08/18 08:33:37;;;;;;;23.93;19.63;;;;;;;19.78;100.00;98200.78;5045820;28;20028;-66
2022/08/18 08:36:33;;;;;;;26.77;21.63;;;;;;;19.68;100.00;98208.50;5045227;28;20025;-66
2022/08/18 08:39:04;;;;;;;29.05;20.25;;;;;;;19.64;100.00;98209.66;5045634;28;20347;-66
2022/08/18 08:41:53;;;;;;;21.65;17.25;;;;;;;19.71;100.00;98211.00;5045661;28;20025;-66
2022/08/18 08:44:48;;;;;;;28.45;20.67;;;;;;;19.74;100.00;98215.31;5045778;28;20040;-66
2022/08/18 08:47:25;;;;;;;32.97;22.17;;;;;;;19.78;100.00;98216.81;5045745;28;20305;-66
2022/08/18 08:49:56;;;;;;;26.02;20.77;;;;;;;19.84;100.00;98230.63;5045439;28;20041;-66
2022/08/18 08:52:40;;;;;;;26.15;21.27;;;;;;;19.76;100.00;98230.25;5045449;28;20031;-66
2022/08/18 08:55:17;;;;;;;28.63;22.08;;;;;;;19.71;100.00;98227.00;5045339;28;20029;-66
2022/08/18 08:57:50;;;;;;;30.35;22.17;;;;;;;19.74;100.00;98217.97;5045286;28;20029;-66
2022/08/18 09:00:17;;;;;;;29.15;22.67;;;;;;;19.82;100.00;98213.84;5045477;28;20301;-66
2022/08/18 09:03:10;;;;;;;31.05;21.77;;;;;;;19.81;100.00;98213.97;5045459;28;20328;-66
2022/08/18 09:05:45;;;;;;;30.02;21.48;;;;;;;19.81;100.00;98211.28;5045306;28;20386;-66
2022/08/18 09:08:27;;;;;;;30.77;23.05;;;;;;;19.85;100.00;98213.66;5045116;28;20029;-66
2022/08/18 09:11:13;;;;;;;30.33;22.23;;;;;;;19.82;100.00;98207.66;5044973;28;20067;-66
2022/08/18 09:13:57;;;;;;;30.73;22.08;;;;;;;19.96;100.00;98211.16;5044987;28;20021;-66
2022/08/18 09:16:39;;;;;;;26.92;20.85;;;;;;;20.07;100.00;98197.13;5045166;28;20028;-66
2022/08/18 09:19:35;;;;;;;27.92;23.58;;;;;;;20.15;100.00;98179.66;5044921;28;20025;-66
2022/08/18 09:22:12;;;;;;;32.22;22.70;;;;;;;20.10;100.00;98181.78;5044860;28;20029;-66
2022/08/18 09:24:44;;;;;;;33.78;23.08;;;;;;;20.10;100.00;98187.13;5044704;28;20246;-66
2022/08/18 09:27:12;;;;;;;;;;;;;;;20.12;100.00;98179.88;5045116;28;20028;-66
2022/08/18 09:29:37;;;;;;;28.42;21.77;;;;;;;20.01;100.00;98182.34;5044697;28;19920;-66
2022/08/18 09:32:17;;;;;;;32.30;24.92;;;;;;;20.00;100.00;98179.78;5044671;28;20217;-66
2022/08/18 09:34:58;;;;;;;30.02;23.40;;;;;;;20.15;100.00;98150.28;5044593;28;20080;-66
2022/08/18 09:37:33;;;;;;;28.00;22.52;;;;;;;20.79;100.00;98134.34;5044519;28;20025;-66
2022/08/18 09:43:23;;;;;;;34.83;22.60;;;;;;;21.12;97.73;98126.72;5044424;28;20079;-66
2022/08/18 09:45:54;;;;;;;27.00;20.35;;;;;;;21.65;95.28;98130.97;5043846;28;20083;-66
2022/08/18 09:48:31;;;;;;;29.75;21.52;;;;;;;22.17;95.81;98122.69;5044138;28;20138;-66
2022/08/18 09:51:17;;;;;;;23.98;18.80;;;;;;;21.98;94.47;98128.53;5044344;28;20025;-66
2022/08/18 09:53:45;;;;;;;27.48;21.75;;;;;;;21.85;95.90;98148.28;5044280;28;20317;-66
2022/08/18 09:56:16;;;;;;;29.05;22.33;;;;;;;21.53;97.53;98155.94;5044250;28;20032;-66
2022/08/18 09:58:59;;;;;;;27.58;21.52;;;;;;;21.30;97.65;98157.53;5044459;28;20044;-66
2022/08/18 10:01:38;;;;;;;26.95;20.67;;;;;;;21.24;98.43;98157.13;5044396;28;20044;-66
2022/08/18 10:04:12;;;;;;;28.33;20.85;;;;;;;21.24;97.87;98147.25;5044079;28;20028;-66
2022/08/18 10:06:38;;;;;;;29.40;22.08;;;;;;;21.12;99.11;98147.25;5044117;28;20025;-66
2022/08/18 10:09:34;;;;;;;30.58;22.50;;;;;;;21.01;99.89;98156.00;5044058;28;20087;-66
2022/08/18 10:12:30;;;;;;;32.15;21.15;;;;;;;21.02;98.55;98152.41;5043922;28;20025;-66
2022/08/18 10:15:14;;;;;;;27.17;20.80;;;;;;;21.04;98.85;98152.28;5043962;28;20045;-66
2022/08/18 10:17:48;;;;;;;27.17;21.67;;;;;;;21.11;100.00;98162.44;5043962;28;20365;-66
2022/08/18 10:20:37;;;;;;;24.05;17.30;;;;;;;21.08;99.59;98165.31;5043933;28;20033;-66
2022/08/18 10:23:05;;;;;;;21.25;17.23;;;;;;;21.16;100.00;98160.31;5044191;28;20336;-66
2022/08/18 10:25:37;;;;;;;17.52;13.90;;;;;;;21.12;94.91;98150.81;5043815;28;20339;-66
2022/08/18 10:28:05;;;;;;;18.40;12.95;;;;;;;21.12;94.94;98145.44;5043736;28;20313;-66
2022/08/18 10:30:35;;;;;;;14.90;12.40;;;;;;;21.09;94.72;98155.50;5043750;28;20239;-66
2022/08/18 10:33:11;;;;;;;16.35;11.50;;;;;;;21.02;94.59;98144.38;5044096;28;20026;-66
2022/08/18 10:35:36;;;;;;;15.02;12.88;;;;;;;20.92;96.09;98156.59;5044065;28;20018;-66
2022/08/18 10:38:21;;;;;;;18.40;13.07;;;;;;;21.05;97.65;98162.91;5043796;28;20119;-66
2022/08/18 10:41:04;;;;;;;15.73;11.98;;;;;;;20.94;95.60;98160.06;5042614;28;20093;-66
2022/08/18 10:43:41;;;;;;;20.05;14.73;;;;;;;20.99;100.00;98154.41;5043772;28;20025;-66
2022/08/18 10:46:17;;;;;;;19.48;13.85;;;;;;;21.15;100.00;98147.91;5043697;28;20100;-66
2022/08/18 10:48:42;;;;;;;13.45;10.88;;;;;;;21.43;95.03;98130.78;5043665;28;20025;-66
2022/08/18 10:51:23;;;;;;;16.23;11.60;;;;;;;21.67;94.04;98117.44;5043927;28;20049;-66
2022/08/18 10:53:57;;;;;;;13.75;11.32;;;;;;;21.90;91.06;98103.28;5043648;28;20029;-66
2022/08/18 10:56:40;;;;;;;15.32;12.50;;;;;;;21.79;94.05;98119.25;5043660;28;20383;-66
2022/08/18 10:59:15;;;;;;;14.80;12.27;;;;;;;21.41;94.27;98134.53;5043598;28;20025;-66
2022/08/18 11:01:53;;;;;;;15.68;13.23;;;;;;;21.09;95.56;98140.31;5047232;28;20244;-66
2022/08/18 11:04:37;;;;;;;17.15;12.98;;;;;;;21.07;95.79;98150.25;5047359;28;20025;-66
2022/08/18 11:07:24;;;;;;;16.80;13.23;;;;;;;20.98;96.65;98145.53;5047400;28;20096;-66
2022/08/18 11:09:52;;;;;;;19.17;13.55;;;;;;;21.00;98.76;98138.25;5047471;28;20033;-66
2022/08/18 11:12:58;;;;;;;17.58;13.75;;;;;;;20.96;98.28;98141.25;5047313;28;20355;-66
2022/08/18 11:15:34;;;;;;;20.42;14.05;;;;;;;21.01;97.92;98134.59;5046319;28;20225;-66
2022/08/18 11:18:19;;;;;;;19.35;13.70;;;;;;;21.04;96.27;98134.41;5047219;28;20244;-66
2022/08/18 11:20:44;;;;;;;20.35;14.43;;;;;;;21.04;96.21;98138.91;5047137;28;20030;-66
2022/08/18 11:23:15;;;;;;;20.70;15.23;;;;;;;21.07;98.48;98150.25;5047097;28;20060;-66
2022/08/18 11:25:41;;;;;;;16.85;14.68;;;;;;;21.14;96.29;98140.81;5047044;28;20025;-66
2022/08/18 11:28:19;;;;;;;19.02;15.23;;;;;;;21.18;97.65;98142.34;5046946;28;20018;-66
2022/08/18 11:30:49;;;;;;;23.92;14.75;;;;;;;21.13;97.14;98138.25;5046800;28;20033;-66
2022/08/18 11:33:16;;;;;;;18.50;15.30;;;;;;;21.17;97.02;98129.91;5046889;28;20032;-66
2022/08/18 11:35:51;;;;;;;19.83;14.93;;;;;;;21.03;96.43;98127.34;5046849;28;20025;-66
2022/08/18 11:38:20;;;;;;;19.55;15.77;;;;;;;21.10;95.97;98120.59;5046835;28;20025;-66
2022/08/18 11:40:55;;;;;;;16.00;13.35;;;;;;;21.20;95.02;98113.63;5046906;28;20021;-66
2022/08/18 11:43:26;;;;;;;18.27;14.77;;;;;;;21.37;92.87;98115.13;5046811;28;20096;-66
2022/08/18 11:45:58;;;;;;;18.45;15.75;;;;;;;21.40;95.45;98108.69;5046600;28;20056;-66
2022/08/18 11:48:27;;;;;;;19.75;16.65;;;;;;;21.38;97.51;98107.97;5046674;28;20032;-66
2022/08/18 11:50:55;;;;;;;22.20;17.55;;;;;;;21.15;96.88;98098.88;5046533;28;20025;-66
2022/08/18 11:53:21;;;;;;;20.27;16.42;;;;;;;21.36;94.94;98092.00;5046568;28;20025;-66